sensor_id;sensor_type;location;lat;lon;timestamp;temperature;humidity
47162;DHT22;32921;53.256;8.198;2022-08-19T00:01:24;16.00;99.90
47162;DHT22;32921;53.256;8.198;2022-08-19T00:03:50;16.00;99.90
47162;DHT22;32921;53.256;8.198;2022-08-19T00:06:16;15.90;99.90
47162;DHT22;32921;53.256;8.198;2022-08-19T00:08:42;16.00;99.90
47162;DHT22;32921;53.256;8.198;2022-08-19T00:11:09;15.90;99.90
47162;DHT22;32921;53.256;8.198;2022-08-19T00:13:35;15.80;99.90
47162;DHT22;32921;53.256;8.198;2022-08-19T00:16:02;15.80;99.90
47162;DHT22;32921;53.256;8.198;2022-08-19T00:18:28;15.80;99.90
47162;DHT22;32921;53.256;8.198;2022-08-19T00:20:54;15.70;99.90
47162;DHT22;32921;53.256;8.198;2022-08-19T00:23:19;15.70;99.90
47162;DHT22;32921;53.256;8.198;2022-08-19T00:25:45;15.70;99.90
47162;DHT22;32921;53.256;8.198;2022-08-19T00:28:11;15.70;99.90
47162;DHT22;32921;53.256;8.198;2022-08-19T00:30:36;15.70;99.90
47162;DHT22;32921;53.256;8.198;2022-08-19T00:33:02;15.70;99.90
47162;DHT22;32921;53.256;8.198;2022-08-19T00:35:28;15.70;99.90
47162;DHT22;32921;53.256;8.198;2022-08-19T00:37:54;15.70;99.90
47162;DHT22;32921;53.256;8.198;2022-08-19T00:40:20;15.70;99.90
47162;DHT22;32921;53.256;8.198;2022-08-19T00:42:46;15.70;99.90
47162;DHT22;32921;53.256;8.198;2022-08-19T00:45:15;15.80;99.90
47162;DHT22;32921;53.256;8.198;2022-08-19T00:47:43;15.90;99.90
47162;DHT22;32921;53.256;8.198;2022-08-19T00:50:10;15.90;99.90
47162;DHT22;32921;53.256;8.198;2022-08-19T00:52:39;15.80;99.90
47162;DHT22;32921;53.256;8.198;2022-08-19T00:55:08;15.90;99.90
47162;DHT22;32921;53.256;8.198;2022-08-19T00:57:40;15.70;99.90
47162;DHT22;32921;53.256;8.198;2022-08-19T01:00:38;15.70;99.90
47162;DHT22;32921;53.256;8.198;2022-08-19T01:03:09;15.70;99.90
47162;DHT22;32921;53.256;8.198;2022-08-19T01:05:35;15.60;99.90
47162;DHT22;32921;53.256;8.198;2022-08-19T01:08:03;15.60;99.90
47162;DHT22;32921;53.256;8.198;2022-08-19T01:10:33;15.50;99.90
47162;DHT22;32921;53.256;8.198;2022-08-19T01:12:59;15.40;99.90
47162;DHT22;32921;53.256;8.198;2022-08-19T01:15:30;15.40;99.90
47162;DHT22;32921;53.256;8.198;2022-08-19T01:17:59;15.60;99.90
47162;DHT22;32921;53.256;8.198;2022-08-19T01:20:25;15.70;99.90
47162;DHT22;32921;53.256;8.198;2022-08-19T01:22:57;15.60;99.90
47162;DHT22;32921;53.256;8.198;2022-08-19T01:25:38;15.60;99.90
47162;DHT22;32921;53.256;8.198;2022-08-19T01:28:05;15.70;99.90
47162;DHT22;32921;53.256;8.198;2022-08-19T01:30:33;15.70;99.90
47162;DHT22;32921;53.256;8.198;2022-08-19T01:32:59;15.60;99.90
47162;DHT22;32921;53.256;8.198;2022-08-19T01:35:27;15.60;99.90
47162;DHT22;32921;53.256;8.198;2022-08-19T01:37:57;15.50;99.90
47162;DHT22;32921;53.256;8.198;2022-08-19T01:40:26;15.30;99.90
47162;DHT22;32921;53.256;8.198;2022-08-19T01:42:53;15.20;99.90
47162;DHT22;32921;53.256;8.198;2022-08-19T01:45:21;15.10;99.90
47162;DHT22;32921;53.256;8.198;2022-08-19T01:47:47;14.90;99.90
47162;DHT22;32921;53.256;8.198;2022-08-19T01:50:14;15.00;99.90
47162;DHT22;32921;53.256;8.198;2022-08-19T01:52:41;14.90;99.90
47162;DHT22;32921;53.256;8.198;2022-08-19T01:55:10;15.10;99.90
47162;DHT22;32921;53.256;8.198;2022-08-19T01:57:37;14.90;99.90
47162;DHT22;32921;53.256;8.198;2022-08-19T02:00:08;14.70;99.90
47162;DHT22;32921;53.256;8.198;2022-08-19T02:02:34;14.60;99.90
47162;DHT22;32921;53.256;8.198;2022-08-19T02:04:59;14.70;99.90
47162;DHT22;32921;53.256;8.198;2022-08-19T02:07:25;14.50;99.90
47162;DHT22;32921;53.256;8.198;2022-08-19T02:09:53;14.30;99.90
47162;DHT22;32921;53.256;8.198;2022-08-19T02:12:20;14.30;99.90
47162;DHT22;32921;53.256;8.198;2022-08-19T02:14:46;14.20;99.90
47162;DHT22;32921;53.256;8.198;2022-08-19T02:17:12;14.40;99.90
47162;DHT22;32921;53.256;8.198;2022-08-19T02:19:37;14.30;99.90
47162;DHT22;32921;53.256;8.198;2022-08-19T02:22:03;14.20;99.90
47162;DHT22;32921;53.256;8.198;2022-08-19T02:24:29;14.30;99.90
47162;DHT22;32921;53.256;8.198;2022-08-19T02:26:54;14.20;99.90
47162;DHT22;32921;53.256;8.198;2022-08-19T02:29:20;14.10;99.90
47162;DHT22;32921;53.256;8.198;2022-08-19T02:31:46;14.10;99.90
47162;DHT22;32921;53.256;8.198;2022-08-19T02:34:12;14.10;99.90
47162;DHT22;32921;53.256;8.198;2022-08-19T02:36:37;14.00;99.90
47162;DHT22;32921;53.256;8.198;2022-08-19T02:39:04;14.10;99.90
47162;DHT22;32921;53.256;8.198;2022-08-19T02:41:31;14.10;99.90
47162;DHT22;32921;53.256;8.198;2022-08-19T02:43:59;14.10;99.90
47162;DHT22;32921;53.256;8.198;2022-08-19T02:46:29;14.00;99.90
47162;DHT22;32921;53.256;8.198;2022-08-19T02:49:00;14.00;99.90
47162;DHT22;32921;53.256;8.198;2022-08-19T02:51:46;14.10;99.90
47162;DHT22;32921;53.256;8.198;2022-08-19T02:54:14;14.10;99.90
47162;DHT22;32921;53.256;8.198;2022-08-19T02:56:41;14.10;99.90
47162;DHT22;32921;53.256;8.198;2022-08-19T02:59:08;14.10;99.90
47162;DHT22;32921;53.256;8.198;2022-08-19T03:01:37;14.00;99.90
47162;DHT22;32921;53.256;8.198;2022-08-19T03:04:06;13.90;99.90
47162;DHT22;32921;53.256;8.198;2022-08-19T03:06:35;13.80;99.90
47162;DHT22;32921;53.256;8.198;2022-08-19T03:09:01;13.80;99.90
47162;DHT22;32921;53.256;8.198;2022-08-19T03:11:30;13.90;99.90
47162;DHT22;32921;53.256;8.198;2022-08-19T03:13:56;13.80;99.90
47162;DHT22;32921;53.256;8.198;2022-08-19T03:16:24;13.70;99.90
47162;DHT22;32921;53.256;8.198;2022-08-19T03:18:51;13.70;99.90
47162;DHT22;32921;53.256;8.198;2022-08-19T03:21:20;13.60;99.90
47162;DHT22;32921;53.256;8.198;2022-08-19T03:23:46;13.60;99.90
47162;DHT22;32921;53.256;8.198;2022-08-19T03:26:12;13.70;99.90
47162;DHT22;32921;53.256;8.198;2022-08-19T03:28:40;13.80;99.90
47162;DHT22;32921;53.256;8.198;2022-08-19T03:31:16;13.70;99.90
47162;DHT22;32921;53.256;8.198;2022-08-19T03:33:42;13.60;99.90
47162;DHT22;32921;53.256;8.198;2022-08-19T03:36:09;13.70;99.90
47162;DHT22;32921;53.256;8.198;2022-08-19T03:38:48;13.60;99.90
47162;DHT22;32921;53.256;8.198;2022-08-19T03:41:26;13.50;99.90
47162;DHT22;32921;53.256;8.198;2022-08-19T03:43:59;13.70;99.90
47162;DHT22;32921;53.256;8.198;2022-08-19T03:46:30;13.50;99.90
47162;DHT22;32921;53.256;8.198;2022-08-19T03:48:58;13.50;99.90
47162;DHT22;32921;53.256;8.198;2022-08-19T03:51:30;13.50;99.90
47162;DHT22;32921;53.256;8.198;2022-08-19T03:53:58;13.50;99.90
47162;DHT22;32921;53.256;8.198;2022-08-19T03:56:25;13.50;99.90
47162;DHT22;32921;53.256;8.198;2022-08-19T03:58:52;13.50;99.90
47162;DHT22;32921;53.256;8.198;2022-08-19T04:01:20;13.40;99.90
47162;DHT22;32921;53.256;8.198;2022-08-19T04:03:46;13.50;99.90
47162;DHT22;32921;53.256;8.198;2022-08-19T04:06:14;13.40;99.90
47162;DHT22;32921;53.256;8.198;2022-08-19T04:08:41;13.30;99.90
47162;DHT22;32921;53.256;8.198;2022-08-19T04:11:09;13.30;99.90
47162;DHT22;32921;53.256;8.198;2022-08-19T04:13:35;13.20;99.90
47162;DHT22;32921;53.256;8.198;2022-08-19T04:16:01;13.20;99.90
47162;DHT22;32921;53.256;8.198;2022-08-19T04:18:26;13.30;99.90
47162;DHT22;32921;53.256;8.198;2022-08-19T04:20:55;13.30;99.90
47162;DHT22;32921;53.256;8.198;2022-08-19T04:23:20;13.20;99.90
47162;DHT22;32921;53.256;8.198;2022-08-19T04:25:46;13.10;99.90
47162;DHT22;32921;53.256;8.198;2022-08-19T04:28:13;13.10;99.90
47162;DHT22;32921;53.256;8.198;2022-08-19T04:30:44;13.50;99.90
47162;DHT22;32921;53.256;8.198;2022-08-19T04:33:11;13.60;99.90
47162;DHT22;32921;53.256;8.198;2022-08-19T04:35:42;13.70;99.90
47162;DHT22;32921;53.256;8.198;2022-08-19T04:38:08;13.80;99.90
47162;DHT22;32921;53.256;8.198;2022-08-19T04:40:43;13.50;99.90
47162;DHT22;32921;53.256;8.198;2022-08-19T04:43:28;13.40;99.90
47162;DHT22;32921;53.256;8.198;2022-08-19T04:45:54;13.50;99.90
47162;DHT22;32921;53.256;8.198;2022-08-19T04:48:20;13.70;99.90
47162;DHT22;32921;53.256;8.198;2022-08-19T04:50:52;13.70;99.90
47162;DHT22;32921;53.256;8.198;2022-08-19T04:53:25;13.70;99.90
47162;DHT22;32921;53.256;8.198;2022-08-19T04:55:52;13.60;99.90
47162;DHT22;32921;53.256;8.198;2022-08-19T04:58:17;13.50;99.90
47162;DHT22;32921;53.256;8.198;2022-08-19T05:00:43;13.70;99.90
47162;DHT22;32921;53.256;8.198;2022-08-19T05:03:09;13.60;99.90
47162;DHT22;32921;53.256;8.198;2022-08-19T05:05:41;13.60;99.90
47162;DHT22;32921;53.256;8.198;2022-08-19T05:08:07;13.70;99.90
47162;DHT22;32921;53.256;8.198;2022-08-19T05:10:35;13.90;99.90
47162;DHT22;32921;53.256;8.198;2022-08-19T05:13:01;13.90;99.90
47162;DHT22;32921;53.256;8.198;2022-08-19T05:15:27;14.10;99.90
47162;DHT22;32921;53.256;8.198;2022-08-19T05:17:52;14.20;99.90
47162;DHT22;32921;53.256;8.198;2022-08-19T05:20:40;14.40;99.90
47162;DHT22;32921;53.256;8.198;2022-08-19T05:23:24;14.40;99.90
47162;DHT22;32921;53.256;8.198;2022-08-19T05:25:52;14.30;99.90
47162;DHT22;32921;53.256;8.198;2022-08-19T05:28:19;14.20;99.90
47162;DHT22;32921;53.256;8.198;2022-08-19T05:30:45;14.30;99.90
47162;DHT22;32921;53.256;8.198;2022-08-19T05:33:12;14.50;99.90
47162;DHT22;32921;53.256;8.198;2022-08-19T05:35:40;14.60;99.90
47162;DHT22;32921;53.256;8.198;2022-08-19T05:38:07;14.60;99.90
47162;DHT22;32921;53.256;8.198;2022-08-19T05:40:37;14.80;99.90
47162;DHT22;32921;53.256;8.198;2022-08-19T05:43:04;14.90;99.90
47162;DHT22;32921;53.256;8.198;2022-08-19T05:45:30;14.90;99.90
47162;DHT22;32921;53.256;8.198;2022-08-19T05:47:56;15.00;99.90
47162;DHT22;32921;53.256;8.198;2022-08-19T05:50:22;15.10;99.90
47162;DHT22;32921;53.256;8.198;2022-08-19T05:52:47;15.10;99.90
47162;DHT22;32921;53.256;8.198;2022-08-19T05:55:20;15.10;99.90
47162;DHT22;32921;53.256;8.198;2022-08-19T05:57:46;15.10;99.90
47162;DHT22;32921;53.256;8.198;2022-08-19T06:00:13;15.30;99.90
47162;DHT22;32921;53.256;8.198;2022-08-19T06:02:39;15.40;99.90
47162;DHT22;32921;53.256;8.198;2022-08-19T06:05:06;15.50;99.90
47162;DHT22;32921;53.256;8.198;2022-08-19T06:07:38;15.60;99.90
47162;DHT22;32921;53.256;8.198;2022-08-19T06:10:06;15.70;99.90
47162;DHT22;32921;53.256;8.198;2022-08-19T06:12:33;15.90;99.90
47162;DHT22;32921;53.256;8.198;2022-08-19T06:15:01;16.00;99.90
47162;DHT22;32921;53.256;8.198;2022-08-19T06:17:28;16.20;99.90
47162;DHT22;32921;53.256;8.198;2022-08-19T06:19:55;16.40;99.90
47162;DHT22;32921;53.256;8.198;2022-08-19T06:22:20;16.60;99.90
47162;DHT22;32921;53.256;8.198;2022-08-19T06:24:46;16.80;99.90
47162;DHT22;32921;53.256;8.198;2022-08-19T06:27:12;17.10;99.90
47162;DHT22;32921;53.256;8.198;2022-08-19T06:29:37;17.40;99.90
47162;DHT22;32921;53.256;8.198;2022-08-19T06:32:03;17.40;99.90
47162;DHT22;32921;53.256;8.198;2022-08-19T06:34:31;17.40;99.90
47162;DHT22;32921;53.256;8.198;2022-08-19T06:36:59;17.40;99.90
47162;DHT22;32921;53.256;8.198;2022-08-19T06:39:28;17.70;99.90
47162;DHT22;32921;53.256;8.198;2022-08-19T06:41:57;18.00;99.90
47162;DHT22;32921;53.256;8.198;2022-08-19T06:44:25;18.30;99.90
47162;DHT22;32921;53.256;8.198;2022-08-19T06:46:52;18.20;99.90
47162;DHT22;32921;53.256;8.198;2022-08-19T06:49:18;18.40;99.90
47162;DHT22;32921;53.256;8.198;2022-08-19T06:51:46;18.50;99.90
47162;DHT22;32921;53.256;8.198;2022-08-19T06:54:16;18.70;99.90
47162;DHT22;32921;53.256;8.198;2022-08-19T06:56:43;19.00;99.90
47162;DHT22;32921;53.256;8.198;2022-08-19T06:59:19;19.70;99.90
47162;DHT22;32921;53.256;8.198;2022-08-19T07:01:50;20.40;99.90
47162;DHT22;32921;53.256;8.198;2022-08-19T07:04:28;21.10;99.90
47162;DHT22;32921;53.256;8.198;2022-08-19T07:07:02;21.60;99.90
47162;DHT22;32921;53.256;8.198;2022-08-19T07:09:28;21.70;99.90
47162;DHT22;32921;53.256;8.198;2022-08-19T07:11:55;22.20;99.90
47162;DHT22;32921;53.256;8.198;2022-08-19T07:14:23;22.40;99.90
47162;DHT22;32921;53.256;8.198;2022-08-19T07:16:50;22.70;99.90
47162;DHT22;32921;53.256;8.198;2022-08-19T07:19:18;22.90;99.90
47162;DHT22;32921;53.256;8.198;2022-08-19T07:21:46;22.90;99.90
47162;DHT22;32921;53.256;8.198;2022-08-19T07:24:12;23.20;99.90
47162;DHT22;32921;53.256;8.198;2022-08-19T07:26:41;23.40;99.90
47162;DHT22;32921;53.256;8.198;2022-08-19T07:29:07;23.50;99.90
47162;DHT22;32921;53.256;8.198;2022-08-19T07:31:33;24.20;99.90
47162;DHT22;32921;53.256;8.198;2022-08-19T07:34:03;24.80;99.90
47162;DHT22;32921;53.256;8.198;2022-08-19T07:36:33;24.90;99.90
47162;DHT22;32921;53.256;8.198;2022-08-19T07:39:02;25.10;99.90
47162;DHT22;32921;53.256;8.198;2022-08-19T07:41:29;25.10;98.90
47162;DHT22;32921;53.256;8.198;2022-08-19T07:43:55;24.80;99.90
47162;DHT22;32921;53.256;8.198;2022-08-19T07:46:21;24.80;99.90
47162;DHT22;32921;53.256;8.198;2022-08-19T07:48:49;25.50;98.80
47162;DHT22;32921;53.256;8.198;2022-08-19T07:51:18;25.90;97.90
47162;DHT22;32921;53.256;8.198;2022-08-19T07:53:45;25.90;97.70
47162;DHT22;32921;53.256;8.198;2022-08-19T07:56:13;26.10;96.80
47162;DHT22;32921;53.256;8.198;2022-08-19T07:58:45;26.30;95.80
47162;DHT22;32921;53.256;8.198;2022-08-19T08:01:14;26.10;95.90
47162;DHT22;32921;53.256;8.198;2022-08-19T08:03:41;26.10;95.50
47162;DHT22;32921;53.256;8.198;2022-08-19T08:06:26;25.70;96.00
47162;DHT22;32921;53.256;8.198;2022-08-19T08:09:11;25.80;96.00
47162;DHT22;32921;53.256;8.198;2022-08-19T08:11:43;25.90;95.40
47162;DHT22;32921;53.256;8.198;2022-08-19T08:14:16;25.80;95.20
47162;DHT22;32921;53.256;8.198;2022-08-19T08:16:42;26.00;95.10
47162;DHT22;32921;53.256;8.198;2022-08-19T08:19:09;26.30;94.90
47162;DHT22;32921;53.256;8.198;2022-08-19T08:21:35;26.40;93.50
47162;DHT22;32921;53.256;8.198;2022-08-19T08:24:01;26.70;92.10
47162;DHT22;32921;53.256;8.198;2022-08-19T08:26:28;27.20;91.80
47162;DHT22;32921;53.256;8.198;2022-08-19T08:28:54;27.80;91.20
47162;DHT22;32921;53.256;8.198;2022-08-19T08:31:20;27.60;90.70
47162;DHT22;32921;53.256;8.198;2022-08-19T08:33:46;27.70;89.60
47162;DHT22;32921;53.256;8.198;2022-08-19T08:36:13;28.00;90.30
47162;DHT22;32921;53.256;8.198;2022-08-19T08:38:40;27.80;89.20
47162;DHT22;32921;53.256;8.198;2022-08-19T08:41:28;28.00;90.60
47162;DHT22;32921;53.256;8.198;2022-08-19T08:43:57;27.90;89.10
47162;DHT22;32921;53.256;8.198;2022-08-19T08:47:02;28.10;88.40
47162;DHT22;32921;53.256;8.198;2022-08-19T08:49:50;28.20;90.20
47162;DHT22;32921;53.256;8.198;2022-08-19T08:52:25;28.10;87.00
47162;DHT22;32921;53.256;8.198;2022-08-19T08:54:57;27.80;88.90
47162;DHT22;32921;53.256;8.198;2022-08-19T08:57:32;27.80;89.10
47162;DHT22;32921;53.256;8.198;2022-08-19T09:00:03;28.00;89.40
47162;DHT22;32921;53.256;8.198;2022-08-19T09:02:31;28.00;87.50
47162;DHT22;32921;53.256;8.198;2022-08-19T09:04:56;27.60;87.00
47162;DHT22;32921;53.256;8.198;2022-08-19T09:07:29;27.40;89.40
47162;DHT22;32921;53.256;8.198;2022-08-19T09:10:29;27.70;86.20
47162;DHT22;32921;53.256;8.198;2022-08-19T09:13:17;27.20;86.80
47162;DHT22;32921;53.256;8.198;2022-08-19T09:15:56;27.40;86.90
47162;DHT22;32921;53.256;8.198;2022-08-19T09:18:23;27.90;87.30
47162;DHT22;32921;53.256;8.198;2022-08-19T09:20:49;27.90;85.70
47162;DHT22;32921;53.256;8.198;2022-08-19T09:23:15;28.30;85.50
47162;DHT22;32921;53.256;8.198;2022-08-19T09:25:40;27.70;84.10
47162;DHT22;32921;53.256;8.198;2022-08-19T09:28:06;27.50;86.10
47162;DHT22;32921;53.256;8.198;2022-08-19T09:30:40;28.10;85.40
47162;DHT22;32921;53.256;8.198;2022-08-19T09:33:07;28.80;83.40
47162;DHT22;32921;53.256;8.198;2022-08-19T09:35:33;29.50;87.20
47162;DHT22;32921;53.256;8.198;2022-08-19T09:37:59;29.80;81.20
47162;DHT22;32921;53.256;8.198;2022-08-19T09:40:29;30.00;80.10
47162;DHT22;32921;53.256;8.198;2022-08-19T09:42:55;30.00;79.90
47162;DHT22;32921;53.256;8.198;2022-08-19T09:45:22;29.80;77.50
47162;DHT22;32921;53.256;8.198;2022-08-19T09:47:52;30.30;77.10
47162;DHT22;32921;53.256;8.198;2022-08-19T09:50:18;30.20;75.60
47162;DHT22;32921;53.256;8.198;2022-08-19T09:52:44;29.70;76.40
47162;DHT22;32921;53.256;8.198;2022-08-19T09:55:10;29.60;76.50
47162;DHT22;32921;53.256;8.198;2022-08-19T09:57:37;29.50;75.10
47162;DHT22;32921;53.256;8.198;2022-08-19T10:00:05;29.20;75.90
47162;DHT22;32921;53.256;8.198;2022-08-19T10:02:31;29.20;77.00
47162;DHT22;32921;53.256;8.198;2022-08-19T10:04:56;29.00;76.00
47162;DHT22;32921;53.256;8.198;2022-08-19T10:07:40;29.60;76.10
47162;DHT22;32921;53.256;8.198;2022-08-19T10:10:07;30.10;75.00
47162;DHT22;32921;53.256;8.198;2022-08-19T10:12:34;30.90;73.30
47162;DHT22;32921;53.256;8.198;2022-08-19T10:15:01;30.90;70.60
47162;DHT22;32921;53.256;8.198;2022-08-19T10:17:26;29.80;73.30
47162;DHT22;32921;53.256;8.198;2022-08-19T10:19:52;30.00;74.20
47162;DHT22;32921;53.256;8.198;2022-08-19T10:22:18;30.80;73.60
47162;DHT22;32921;53.256;8.198;2022-08-19T10:24:46;30.40;72.70
47162;DHT22;32921;53.256;8.198;2022-08-19T10:27:11;30.10;73.40
47162;DHT22;32921;53.256;8.198;2022-08-19T10:29:38;30.20;73.40
47162;DHT22;32921;53.256;8.198;2022-08-19T10:32:06;30.30;71.90
47162;DHT22;32921;53.256;8.198;2022-08-19T10:34:34;30.70;73.00
47162;DHT22;32921;53.256;8.198;2022-08-19T10:37:01;31.40;71.00
47162;DHT22;32921;53.256;8.198;2022-08-19T10:39:30;31.90;68.10
47162;DHT22;32921;53.256;8.198;2022-08-19T10:41:56;32.70;69.90
47162;DHT22;32921;53.256;8.198;2022-08-19T10:44:23;33.50;65.10
47162;DHT22;32921;53.256;8.198;2022-08-19T10:46:49;33.70;65.10
47162;DHT22;32921;53.256;8.198;2022-08-19T10:49:15;34.30;62.50
47162;DHT22;32921;53.256;8.198;2022-08-19T10:51:41;33.50;61.70
47162;DHT22;32921;53.256;8.198;2022-08-19T10:54:26;33.70;60.40
47162;DHT22;32921;53.256;8.198;2022-08-19T10:57:12;33.40;59.90
47162;DHT22;32921;53.256;8.198;2022-08-19T10:59:38;32.70;59.40
47162;DHT22;32921;53.256;8.198;2022-08-19T11:02:07;33.60;62.80
47162;DHT22;32921;53.256;8.198;2022-08-19T11:04:35;33.50;60.00
47162;DHT22;32921;53.256;8.198;2022-08-19T11:07:01;33.00;61.20
47162;DHT22;32921;53.256;8.198;2022-08-19T11:09:27;31.80;61.70
47162;DHT22;32921;53.256;8.198;2022-08-19T11:11:53;31.90;63.30
47162;DHT22;32921;53.256;8.198;2022-08-19T11:14:20;31.90;62.20
47162;DHT22;32921;53.256;8.198;2022-08-19T11:16:47;32.30;61.50
47162;DHT22;32921;53.256;8.198;2022-08-19T11:19:14;32.30;61.60
47162;DHT22;32921;53.256;8.198;2022-08-19T11:21:44;32.80;61.50
47162;DHT22;32921;53.256;8.198;2022-08-19T11:24:12;32.60;60.80
47162;DHT22;32921;53.256;8.198;2022-08-19T11:26:40;33.40;60.00
47162;DHT22;32921;53.256;8.198;2022-08-19T11:29:08;33.70;57.70
47162;DHT22;32921;53.256;8.198;2022-08-19T11:31:37;34.40;58.20
47162;DHT22;32921;53.256;8.198;2022-08-19T11:34:06;34.40;56.60
47162;DHT22;32921;53.256;8.198;2022-08-19T11:36:33;32.40;58.60
47162;DHT22;32921;53.256;8.198;2022-08-19T11:39:00;32.00;59.90
47162;DHT22;32921;53.256;8.198;2022-08-19T11:41:26;33.20;58.40
47162;DHT22;32921;53.256;8.198;2022-08-19T11:43:53;33.80;57.30
47162;DHT22;32921;53.256;8.198;2022-08-19T11:46:23;34.40;54.60
47162;DHT22;32921;53.256;8.198;2022-08-19T11:48:49;33.60;55.80
47162;DHT22;32921;53.256;8.198;2022-08-19T11:51:19;32.10;58.50
47162;DHT22;32921;53.256;8.198;2022-08-19T11:53:45;32.80;56.60
47162;DHT22;32921;53.256;8.198;2022-08-19T11:56:11;32.80;55.70
47162;DHT22;32921;53.256;8.198;2022-08-19T11:58:37;33.30;56.00
47162;DHT22;32921;53.256;8.198;2022-08-19T12:01:11;33.60;54.20
47162;DHT22;32921;53.256;8.198;2022-08-19T12:03:37;34.00;53.30
47162;DHT22;32921;53.256;8.198;2022-08-19T12:06:10;33.60;55.10
47162;DHT22;32921;53.256;8.198;2022-08-19T12:08:37;33.50;54.30
47162;DHT22;32921;53.256;8.198;2022-08-19T12:11:04;33.00;54.40
47162;DHT22;32921;53.256;8.198;2022-08-19T12:13:31;32.80;55.70
47162;DHT22;32921;53.256;8.198;2022-08-19T12:15:56;33.10;55.40
47162;DHT22;32921;53.256;8.198;2022-08-19T12:18:23;32.80;55.70
47162;DHT22;32921;53.256;8.198;2022-08-19T12:20:51;32.40;56.60
47162;DHT22;32921;53.256;8.198;2022-08-19T12:23:16;32.50;56.00
47162;DHT22;32921;53.256;8.198;2022-08-19T12:25:47;32.80;55.10
47162;DHT22;32921;53.256;8.198;2022-08-19T12:28:20;33.70;53.90
47162;DHT22;32921;53.256;8.198;2022-08-19T12:30:47;33.90;53.20
47162;DHT22;32921;53.256;8.198;2022-08-19T12:33:13;33.60;54.10
47162;DHT22;32921;53.256;8.198;2022-08-19T12:35:43;34.00;53.30
47162;DHT22;32921;53.256;8.198;2022-08-19T12:38:10;34.50;52.20
47162;DHT22;32921;53.256;8.198;2022-08-19T12:40:36;34.80;52.60
47162;DHT22;32921;53.256;8.198;2022-08-19T12:43:01;34.70;52.20
47162;DHT22;32921;53.256;8.198;2022-08-19T12:45:27;34.60;52.40
47162;DHT22;32921;53.256;8.198;2022-08-19T12:47:52;34.60;52.20
47162;DHT22;32921;53.256;8.198;2022-08-19T12:50:18;35.10;51.60
47162;DHT22;32921;53.256;8.198;2022-08-19T12:52:46;35.20;51.90
47162;DHT22;32921;53.256;8.198;2022-08-19T12:55:12;34.90;52.40
47162;DHT22;32921;53.256;8.198;2022-08-19T12:57:38;33.90;53.50
47162;DHT22;32921;53.256;8.198;2022-08-19T13:00:08;33.30;54.00
47162;DHT22;32921;53.256;8.198;2022-08-19T13:02:40;33.70;55.50
47162;DHT22;32921;53.256;8.198;2022-08-19T13:05:08;34.00;54.30
47162;DHT22;32921;53.256;8.198;2022-08-19T13:07:34;33.50;54.70
47162;DHT22;32921;53.256;8.198;2022-08-19T13:10:00;33.70;54.10
47162;DHT22;32921;53.256;8.198;2022-08-19T13:12:26;33.20;53.80
47162;DHT22;32921;53.256;8.198;2022-08-19T13:14:53;33.90;52.30
47162;DHT22;32921;53.256;8.198;2022-08-19T13:17:19;35.00;52.00
47162;DHT22;32921;53.256;8.198;2022-08-19T13:19:45;35.70;50.80
47162;DHT22;32921;53.256;8.198;2022-08-19T13:22:11;36.10;50.50
47162;DHT22;32921;53.256;8.198;2022-08-19T13:24:37;34.30;52.10
47162;DHT22;32921;53.256;8.198;2022-08-19T13:27:03;34.90;50.40
47162;DHT22;32921;53.256;8.198;2022-08-19T13:29:29;35.30;51.60
47162;DHT22;32921;53.256;8.198;2022-08-19T13:32:13;36.30;48.40
47162;DHT22;32921;53.256;8.198;2022-08-19T13:34:57;35.80;48.60
47162;DHT22;32921;53.256;8.198;2022-08-19T13:37:22;34.30;50.90
47162;DHT22;32921;53.256;8.198;2022-08-19T13:40:07;34.20;50.80
47162;DHT22;32921;53.256;8.198;2022-08-19T13:42:39;35.20;50.90
47162;DHT22;32921;53.256;8.198;2022-08-19T13:45:05;34.90;49.20
47162;DHT22;32921;53.256;8.198;2022-08-19T13:47:32;35.10;48.60
47162;DHT22;32921;53.256;8.198;2022-08-19T13:50:00;35.50;48.30
47162;DHT22;32921;53.256;8.198;2022-08-19T13:52:25;36.10;47.90
47162;DHT22;32921;53.256;8.198;2022-08-19T13:54:51;35.50;47.30
47162;DHT22;32921;53.256;8.198;2022-08-19T13:57:16;35.00;47.70
47162;DHT22;32921;53.256;8.198;2022-08-19T13:59:42;34.50;46.40
47162;DHT22;32921;53.256;8.198;2022-08-19T14:02:08;34.80;45.40
47162;DHT22;32921;53.256;8.198;2022-08-19T14:04:33;35.30;44.30
47162;DHT22;32921;53.256;8.198;2022-08-19T14:06:59;35.50;44.20
47162;DHT22;32921;53.256;8.198;2022-08-19T14:09:24;35.30;43.60
47162;DHT22;32921;53.256;8.198;2022-08-19T14:11:50;35.50;44.40
47162;DHT22;32921;53.256;8.198;2022-08-19T14:14:16;35.50;43.30
47162;DHT22;32921;53.256;8.198;2022-08-19T14:16:42;36.20;44.80
47162;DHT22;32921;53.256;8.198;2022-08-19T14:19:08;36.80;42.60
47162;DHT22;32921;53.256;8.198;2022-08-19T14:21:33;37.50;42.30
47162;DHT22;32921;53.256;8.198;2022-08-19T14:24:01;37.60;40.70
47162;DHT22;32921;53.256;8.198;2022-08-19T14:26:27;36.90;41.00
47162;DHT22;32921;53.256;8.198;2022-08-19T14:28:52;37.50;41.70
47162;DHT22;32921;53.256;8.198;2022-08-19T14:31:22;37.30;42.00
47162;DHT22;32921;53.256;8.198;2022-08-19T14:33:49;37.10;41.60
47162;DHT22;32921;53.256;8.198;2022-08-19T14:36:16;36.60;42.40
47162;DHT22;32921;53.256;8.198;2022-08-19T14:38:42;36.50;43.80
47162;DHT22;32921;53.256;8.198;2022-08-19T14:41:15;38.10;41.50
47162;DHT22;32921;53.256;8.198;2022-08-19T14:43:43;38.00;42.50
47162;DHT22;32921;53.256;8.198;2022-08-19T14:46:10;37.30;43.10
47162;DHT22;32921;53.256;8.198;2022-08-19T14:48:38;36.90;42.40
47162;DHT22;32921;53.256;8.198;2022-08-19T14:51:05;36.30;43.70
47162;DHT22;32921;53.256;8.198;2022-08-19T14:53:30;36.70;43.30
47162;DHT22;32921;53.256;8.198;2022-08-19T14:55:58;35.10;44.50
47162;DHT22;32921;53.256;8.198;2022-08-19T14:58:24;35.90;45.00
47162;DHT22;32921;53.256;8.198;2022-08-19T15:00:49;36.10;44.00
47162;DHT22;32921;53.256;8.198;2022-08-19T15:03:15;36.80;43.80
47162;DHT22;32921;53.256;8.198;2022-08-19T15:05:41;36.60;43.70
47162;DHT22;32921;53.256;8.198;2022-08-19T15:08:06;36.60;42.90
47162;DHT22;32921;53.256;8.198;2022-08-19T15:10:32;36.80;43.50
47162;DHT22;32921;53.256;8.198;2022-08-19T15:12:58;37.60;42.20
47162;DHT22;32921;53.256;8.198;2022-08-19T15:15:24;37.60;43.10
47162;DHT22;32921;53.256;8.198;2022-08-19T15:17:50;36.00;44.20
47162;DHT22;32921;53.256;8.198;2022-08-19T15:20:19;35.20;45.80
47162;DHT22;32921;53.256;8.198;2022-08-19T15:22:45;35.00;46.30
47162;DHT22;32921;53.256;8.198;2022-08-19T15:25:13;35.10;45.80
47162;DHT22;32921;53.256;8.198;2022-08-19T15:27:39;35.50;46.10
47162;DHT22;32921;53.256;8.198;2022-08-19T15:30:07;34.90;45.80
47162;DHT22;32921;53.256;8.198;2022-08-19T15:32:33;35.50;45.20
47162;DHT22;32921;53.256;8.198;2022-08-19T15:35:00;35.40;45.10
47162;DHT22;32921;53.256;8.198;2022-08-19T15:37:28;35.30;45.50